Time;durP1;ratioP1;P1;durP2;ratioP2;P2;SDS_P1;SDS_P2;PMS_P1;PMS_P2;Temp;Humidity;BMP_temperature;BMP_pressure;BME280_temperature;BME280_humidity;BME280_pressure;Samples;Min_cycle;Max_cycle;Signal;HPM_P1;HPM_P2
2022/08/24 00:01:13;;;;;;;10.82;3.00;;;;;;;;;;5046329;28;20056;-49
2022/08/24 00:03:39;;;;;;;5.65;2.72;;;;;;;;;;5044882;28;20496;-46
2022/08/24 00:06:08;;;;;;;6.35;2.85;;;;;;;;;;5048978;28;20090;-51
2022/08/24 00:08:35;;;;;;;6.47;2.80;;;;;;;;;;5047361;28;20466;-50
2022/08/24 00:11:01;;;;;;;4.78;3.00;;;;;;;;;;5047651;28;20135;-48
2022/08/24 00:13:27;;;;;;;6.80;3.17;;;;;;;;;;5047534;28;20065;-46
2022/08/24 00:15:54;;;;;;;5.45;3.10;;;;;;;;;;5045760;28;20041;-48
2022/08/24 00:18:20;;;;;;;5.97;2.88;;;;;;;;;;5028657;28;20040;-49
2022/08/24 00:20:47;;;;;;;5.35;2.70;;;;;;;;;;5043718;28;20033;-51
2022/08/24 00:23:13;;;;;;;5.47;2.85;;;;;;;;;;5046053;28;20025;-49
2022/08/24 00:25:39;;;;;;;6.40;2.75;;;;;;;;;;5044034;28;20048;-49
2022/08/24 00:28:05;;;;;;;6.60;2.67;;;;;;;;;;5046875;28;20032;-46
2022/08/24 00:30:31;;;;;;;8.82;3.00;;;;;;;;;;5044897;28;20523;-47
2022/08/24 00:32:57;;;;;;;5.20;3.28;;;;;;;;;;5048606;28;20586;-47
2022/08/24 00:35:23;;;;;;;8.45;2.70;;;;;;;;;;5044926;28;20030;-49
2022/08/24 00:37:50;;;;;;;7.50;2.70;;;;;;;;;;5045264;28;20036;-46
2022/08/24 00:40:18;;;;;;;4.57;2.67;;;;;;;;;;5045168;28;20031;-50
2022/08/24 00:42:45;;;;;;;5.47;2.75;;;;;;;;;;5047719;28;20048;-51
2022/08/24 00:45:15;;;;;;;4.20;2.55;;;;;;;;;;5045069;28;20387;-49
2022/08/24 00:47:44;;;;;;;5.78;2.92;;;;;;;;;;5048393;28;20033;-49
2022/08/24 00:50:16;;;;;;;9.23;2.78;;;;;;;;;;5048599;28;20021;-49
2022/08/24 00:52:48;;;;;;;2.80;2.53;;;;;;;;;;5042001;28;20029;-51
2022/08/24 00:55:27;;;;;;;4.68;3.03;;;;;;;;;;5045832;28;20033;-46
2022/08/24 00:57:59;;;;;;;7.07;2.90;;;;;;;;;;5046891;28;20033;-51
2022/08/24 01:00:30;;;;;;;9.20;2.78;;;;;;;;;;5047451;28;20031;-48
2022/08/24 01:03:03;;;;;;;9.32;2.88;;;;;;;;;;5044877;28;20021;-51
2022/08/24 01:05:31;;;;;;;7.43;2.97;;;;;;;;;;5043719;28;20025;-46
2022/08/24 01:07:58;;;;;;;8.50;2.95;;;;;;;;;;5044905;28;20086;-49
2022/08/24 01:10:27;;;;;;;7.28;2.65;;;;;;;;;;5043226;28;20037;-47
2022/08/24 01:12:57;;;;;;;3.28;2.58;;;;;;;;;;5046696;28;20035;-49
2022/08/24 01:15:23;;;;;;;6.28;2.95;;;;;;;;;;5047210;28;20028;-50
2022/08/24 01:20:33;;;;;;;5.18;2.72;;;;;;;;;;5044785;28;20029;-45
2022/08/24 01:23:17;;;;;;;5.30;3.05;;;;;;;;;;5044776;28;20039;-49
2022/08/24 01:25:43;;;;;;;3.78;3.10;;;;;;;;;;5043403;28;20420;-46
2022/08/24 01:28:15;;;;;;;5.45;3.15;;;;;;;;;;5044226;28;20044;-47
2022/08/24 01:30:43;;;;;;;10.93;3.85;;;;;;;;;;5044103;28;20044;-46
2022/08/24 01:33:20;;;;;;;6.40;2.83;;;;;;;;;;5029561;28;20041;-46
2022/08/24 01:35:46;;;;;;;6.78;3.00;;;;;;;;;;5041797;28;20079;-48
2022/08/24 01:38:12;;;;;;;8.57;3.38;;;;;;;;;;5045554;28;20727;-52
2022/08/24 01:40:44;;;;;;;6.63;3.70;;;;;;;;;;5043630;28;20747;-51
2022/08/24 01:43:11;;;;;;;10.57;4.13;;;;;;;;;;5039291;28;20024;-48
2022/08/24 01:45:37;;;;;;;5.65;3.78;;;;;;;;;;5043195;28;20028;-49
2022/08/24 01:48:04;;;;;;;9.15;4.10;;;;;;;;;;5042813;28;20017;-45
2022/08/24 01:50:30;;;;;;;5.30;3.90;;;;;;;;;;5044751;28;20036;-51
2022/08/24 01:53:00;;;;;;;5.63;3.72;;;;;;;;;;5045222;28;20358;-52
2022/08/24 01:55:26;;;;;;;11.15;3.67;;;;;;;;;;5040788;28;20407;-49
2022/08/24 01:57:51;;;;;;;8.82;3.92;;;;;;;;;;5043357;28;20032;-48
2022/08/24 02:00:17;;;;;;;8.48;4.18;;;;;;;;;;5044374;28;20026;-48
2022/08/24 02:02:43;;;;;;;7.43;3.97;;;;;;;;;;5039507;28;20033;-51
2022/08/24 02:05:11;;;;;;;8.10;3.72;;;;;;;;;;5045767;28;20025;-50
2022/08/24 02:07:37;;;;;;;6.63;3.85;;;;;;;;;;5046214;28;20061;-49
2022/08/24 02:10:06;;;;;;;6.78;4.03;;;;;;;;;;5041009;28;20589;-48
2022/08/24 02:12:33;;;;;;;7.07;3.60;;;;;;;;;;5046732;28;20075;-46
2022/08/24 02:15:01;;;;;;;11.02;3.65;;;;;;;;;;5047141;28;20036;-47
2022/08/24 02:17:28;;;;;;;9.23;3.45;;;;;;;;;;5041367;28;20064;-46
2022/08/24 02:19:53;;;;;;;5.18;2.83;;;;;;;;;;5045855;28;20033;-47
2022/08/24 02:22:19;;;;;;;3.95;2.83;;;;;;;;;;5043906;28;20528;-47
2022/08/24 02:24:45;;;;;;;7.65;3.40;;;;;;;;;;5040506;28;20549;-47
2022/08/24 02:27:12;;;;;;;4.78;3.08;;;;;;;;;;5039547;28;20028;-45
2022/08/24 02:29:37;;;;;;;5.57;2.88;;;;;;;;;;5040060;28;20044;-49
2022/08/24 02:32:04;;;;;;;6.13;3.08;;;;;;;;;;5046733;28;20377;-47
2022/08/24 02:34:30;;;;;;;3.60;2.83;;;;;;;;;;5048399;28;20472;-45
2022/08/24 02:36:56;;;;;;;9.82;3.15;;;;;;;;;;5047330;28;20025;-49
2022/08/24 02:39:22;;;;;;;6.90;3.17;;;;;;;;;;5048446;28;20033;-47
2022/08/24 02:41:49;;;;;;;4.68;3.05;;;;;;;;;;5048999;28;20037;-47
2022/08/24 02:44:15;;;;;;;3.20;2.90;;;;;;;;;;5050555;28;20056;-45
2022/08/24 02:46:41;;;;;;;10.25;2.85;;;;;;;;;;5047160;28;20482;-48
2022/08/24 02:49:07;;;;;;;7.60;3.08;;;;;;;;;;5049210;28;20025;-47
2022/08/24 02:51:33;;;;;;;4.32;2.90;;;;;;;;;;5047144;28;20481;-46
2022/08/24 02:54:01;;;;;;;5.90;3.35;;;;;;;;;;5049536;28;20041;-47
2022/08/24 02:56:31;;;;;;;4.07;2.97;;;;;;;;;;5046894;28;20051;-49
2022/08/24 02:58:58;;;;;;;4.75;2.65;;;;;;;;;;5047396;28;20025;-48
2022/08/24 03:01:25;;;;;;;6.10;3.03;;;;;;;;;;5047455;28;20025;-49
2022/08/24 03:03:50;;;;;;;7.88;3.50;;;;;;;;;;5049994;28;20034;-46
2022/08/24 03:06:17;;;;;;;6.88;2.75;;;;;;;;;;5049906;28;20037;-46
2022/08/24 03:08:44;;;;;;;5.70;2.80;;;;;;;;;;5045756;28;20033;-48
2022/08/24 03:11:11;;;;;;;8.35;2.97;;;;;;;;;;5049941;28;20028;-49
2022/08/24 03:13:37;;;;;;;4.22;2.60;;;;;;;;;;5048104;28;20443;-51
2022/08/24 03:16:04;;;;;;;3.92;2.85;;;;;;;;;;5044162;28;20057;-49
2022/08/24 03:18:30;;;;;;;4.90;2.53;;;;;;;;;;5047489;28;20618;-46
2022/08/24 03:20:58;;;;;;;7.28;2.70;;;;;;;;;;5047893;28;20098;-49
2022/08/24 03:23:24;;;;;;;7.25;3.05;;;;;;;;;;5046235;28;20040;-43
2022/08/24 03:25:51;;;;;;;4.85;2.50;;;;;;;;;;5047526;28;20029;-45
2022/08/24 03:28:18;;;;;;;7.28;2.72;;;;;;;;;;5046829;28;20068;-46
2022/08/24 03:30:44;;;;;;;3.90;2.50;;;;;;;;;;5050141;28;20024;-47
2022/08/24 03:33:10;;;;;;;5.10;3.03;;;;;;;;;;5049293;28;20037;-47
2022/08/24 03:35:36;;;;;;;7.68;2.72;;;;;;;;;;5045052;28;20481;-47
2022/08/24 03:38:03;;;;;;;3.53;2.60;;;;;;;;;;5047762;28;20025;-44
2022/08/24 03:40:32;;;;;;;2.70;2.50;;;;;;;;;;5048409;28;20060;-49
2022/08/24 03:42:59;;;;;;;6.30;2.75;;;;;;;;;;5046347;28;20041;-47
2022/08/24 03:45:25;;;;;;;4.43;2.60;;;;;;;;;;5042726;28;20405;-46
2022/08/24 03:47:51;;;;;;;3.05;2.42;;;;;;;;;;5047899;28;20032;-44
2022/08/24 03:50:17;;;;;;;2.72;2.40;;;;;;;;;;5042498;28;20048;-48
2022/08/24 03:52:43;;;;;;;3.63;2.58;;;;;;;;;;5045845;28;20475;-50
2022/08/24 03:55:09;;;;;;;3.30;3.00;;;;;;;;;;5041800;28;20037;-49
2022/08/24 03:57:35;;;;;;;4.60;2.15;;;;;;;;;;5045248;28;20386;-49
2022/08/24 04:00:03;;;;;;;3.88;2.67;;;;;;;;;;5045810;28;20112;-47
2022/08/24 04:02:29;;;;;;;4.03;2.45;;;;;;;;;;5045969;28;20877;-46
2022/08/24 04:04:55;;;;;;;8.00;2.63;;;;;;;;;;5045889;28;20048;-47
2022/08/24 04:07:21;;;;;;;5.80;2.90;;;;;;;;;;5043998;28;20386;-50
2022/08/24 04:09:46;;;;;;;2.38;2.17;;;;;;;;;;5044528;28;20028;-47
2022/08/24 04:12:12;;;;;;;4.32;2.60;;;;;;;;;;5045234;28;20040;-46
2022/08/24 04:14:38;;;;;;;6.13;2.58;;;;;;;;;;5048299;28;20036;-45
2022/08/24 04:17:05;;;;;;;5.90;2.63;;;;;;;;;;5047175;28;20071;-50
2022/08/24 04:19:32;;;;;;;5.63;2.65;;;;;;;;;;5047237;28;20048;-48
2022/08/24 04:21:58;;;;;;;4.95;2.45;;;;;;;;;;5048792;28;20040;-48
2022/08/24 04:24:25;;;;;;;6.25;2.75;;;;;;;;;;5037247;28;20444;-50
2022/08/24 04:26:51;;;;;;;3.25;2.42;;;;;;;;;;5046167;28;20112;-48
2022/08/24 04:29:19;;;;;;;2.92;2.60;;;;;;;;;;5046823;28;20033;-50
2022/08/24 04:31:47;;;;;;;4.18;2.63;;;;;;;;;;5046451;28;20094;-45
2022/08/24 04:34:15;;;;;;;7.35;2.58;;;;;;;;;;5046722;28;20029;-46
2022/08/24 04:36:42;;;;;;;2.75;2.53;;;;;;;;;;5028153;28;20064;-45
2022/08/24 04:39:08;;;;;;;10.75;2.85;;;;;;;;;;5048877;28;20595;-45
2022/08/24 04:41:34;;;;;;;5.28;2.58;;;;;;;;;;5042207;28;20025;-47
2022/08/24 04:44:00;;;;;;;4.47;2.40;;;;;;;;;;5046751;28;20035;-46
2022/08/24 04:46:27;;;;;;;4.70;2.40;;;;;;;;;;5045287;28;20119;-48
2022/08/24 04:48:52;;;;;;;3.92;2.30;;;;;;;;;;5044372;28;20029;-50
2022/08/24 04:51:18;;;;;;;4.43;2.60;;;;;;;;;;5043955;28;20090;-48
2022/08/24 04:53:45;;;;;;;3.20;2.30;;;;;;;;;;5046154;28;20151;-48
2022/08/24 04:56:16;;;;;;;3.60;2.40;;;;;;;;;;5043253;28;20040;-47
2022/08/24 04:58:43;;;;;;;3.35;2.47;;;;;;;;;;5046171;28;20033;-46
2022/08/24 05:01:14;;;;;;;5.53;2.55;;;;;;;;;;5047578;28;20555;-47
2022/08/24 05:03:42;;;;;;;2.55;2.30;;;;;;;;;;5041313;28;20665;-45
2022/08/24 05:06:11;;;;;;;5.35;2.63;;;;;;;;;;5044866;28;20031;-44
2022/08/24 05:08:36;;;;;;;3.03;2.45;;;;;;;;;;5044929;28;20056;-44
2022/08/24 05:11:06;;;;;;;7.05;2.67;;;;;;;;;;5047627;28;20065;-45
2022/08/24 05:13:31;;;;;;;5.63;2.42;;;;;;;;;;5044258;28;20044;-45
2022/08/24 05:15:57;;;;;;;8.65;2.50;;;;;;;;;;5046788;28;20082;-44
2022/08/24 05:18:23;;;;;;;9.65;2.38;;;;;;;;;;5043422;28;20029;-45
2022/08/24 05:20:49;;;;;;;3.13;2.50;;;;;;;;;;5046342;28;20021;-44
2022/08/24 05:23:14;;;;;;;3.78;2.47;;;;;;;;;;5040261;28;20040;-44
2022/08/24 05:25:41;;;;;;;7.03;2.85;;;;;;;;;;5042229;28;20040;-46
2022/08/24 05:28:07;;;;;;;9.45;2.45;;;;;;;;;;5042967;28;20473;-46
2022/08/24 05:30:33;;;;;;;5.35;3.20;;;;;;;;;;5046525;28;20047;-45
2022/08/24 05:32:58;;;;;;;3.38;2.60;;;;;;;;;;5044286;28;20029;-46
2022/08/24 05:35:24;;;;;;;3.47;2.50;;;;;;;;;;5042286;28;20064;-43
2022/08/24 05:37:50;;;;;;;4.35;2.45;;;;;;;;;;5046680;28;20047;-51
2022/08/24 05:40:18;;;;;;;3.42;2.42;;;;;;;;;;5046087;28;20108;-44
2022/08/24 05:42:44;;;;;;;2.58;2.38;;;;;;;;;;5043241;28;20037;-45
2022/08/24 05:45:11;;;;;;;7.47;2.60;;;;;;;;;;5041549;28;20029;-44
2022/08/24 05:47:37;;;;;;;5.22;2.53;;;;;;;;;;5042979;28;20063;-47
2022/08/24 05:50:04;;;;;;;2.80;2.35;;;;;;;;;;5046691;28;20025;-44
2022/08/24 05:52:30;;;;;;;5.53;2.42;;;;;;;;;;5037415;28;20109;-45
2022/08/24 05:54:58;;;;;;;3.33;2.40;;;;;;;;;;5042396;28;20120;-45
2022/08/24 05:57:26;;;;;;;3.55;2.10;;;;;;;;;;5044873;28;20539;-46
2022/08/24 05:59:52;;;;;;;2.75;2.22;;;;;;;;;;5037885;28;20037;-45
2022/08/24 06:02:18;;;;;;;4.80;2.28;;;;;;;;;;5037915;28;20029;-45
2022/08/24 06:04:44;;;;;;;2.97;2.40;;;;;;;;;;5039547;28;20032;-45
2022/08/24 06:07:11;;;;;;;6.15;2.58;;;;;;;;;;5036508;28;20025;-45
2022/08/24 06:09:38;;;;;;;7.82;2.30;;;;;;;;;;5042380;28;20047;-46
2022/08/24 06:12:05;;;;;;;3.03;2.47;;;;;;;;;;5037852;28;20049;-45
2022/08/24 06:14:31;;;;;;;6.20;2.35;;;;;;;;;;5044264;28;20051;-48
2022/08/24 06:16:57;;;;;;;6.90;2.50;;;;;;;;;;5042536;28;20021;-45
2022/08/24 06:19:23;;;;;;;4.10;2.20;;;;;;;;;;5042842;28;20370;-48
2022/08/24 06:21:51;;;;;;;2.88;2.08;;;;;;;;;;5040544;28;20033;-45
2022/08/24 06:24:17;;;;;;;9.18;2.60;;;;;;;;;;5037659;28;20037;-45
2022/08/24 06:29:29;;;;;;;2.85;2.10;;;;;;;;;;5037088;28;20033;-45
2022/08/24 06:31:55;;;;;;;2.75;2.50;;;;;;;;;;5035684;28;20028;-45
2022/08/24 06:34:23;;;;;;;4.43;2.35;;;;;;;;;;5036814;28;20025;-45
2022/08/24 06:36:48;;;;;;;5.93;2.47;;;;;;;;;;5042295;28;20057;-45
2022/08/24 06:39:14;;;;;;;7.07;2.40;;;;;;;;;;5045166;28;20055;-45
2022/08/24 06:41:40;;;;;;;3.83;2.30;;;;;;;;;;5043189;28;20500;-46
2022/08/24 06:44:07;;;;;;;3.45;2.30;;;;;;;;;;5040670;28;20055;-45
2022/08/24 06:46:35;;;;;;;7.70;2.35;;;;;;;;;;5042600;28;20090;-44
2022/08/24 06:49:01;;;;;;;4.47;2.40;;;;;;;;;;5040540;28;20056;-45
2022/08/24 06:51:27;;;;;;;5.15;2.40;;;;;;;;;;5037599;28;20039;-49
2022/08/24 06:53:57;;;;;;;6.13;2.40;;;;;;;;;;5035880;28;20037;-45
2022/08/24 06:56:23;;;;;;;11.07;3.00;;;;;;;;;;5046184;28;20573;-46
2022/08/24 06:58:49;;;;;;;9.57;3.10;;;;;;;;;;5043824;28;20044;-46
2022/08/24 07:01:21;;;;;;;4.70;2.28;;;;;;;;;;5041508;28;20022;-45
2022/08/24 07:03:47;;;;;;;3.58;2.47;;;;;;;;;;5043512;28;20202;-46
2022/08/24 07:06:13;;;;;;;5.85;2.47;;;;;;;;;;5040243;28;20398;-50
2022/08/24 07:08:41;;;;;;;4.15;2.58;;;;;;;;;;5039456;28;20029;-45
2022/08/24 07:11:08;;;;;;;8.38;2.47;;;;;;;;;;5042564;28;20029;-45
2022/08/24 07:13:34;;;;;;;9.15;2.33;;;;;;;;;;5041343;28;20166;-47
2022/08/24 07:16:00;;;;;;;4.88;2.42;;;;;;;;;;5040568;28;20116;-45
2022/08/24 07:18:26;;;;;;;4.13;2.40;;;;;;;;;;5037615;28;20033;-45
2022/08/24 07:20:52;;;;;;;6.80;2.30;;;;;;;;;;5043337;28;20029;-46
2022/08/24 07:23:19;;;;;;;4.20;2.40;;;;;;;;;;5044095;28;20078;-45
2022/08/24 07:25:46;;;;;;;2.45;1.92;;;;;;;;;;5044793;28;20033;-46
2022/08/24 07:28:12;;;;;;;7.88;2.22;;;;;;;;;;5046890;28;20083;-51
2022/08/24 07:30:39;;;;;;;3.13;2.72;;;;;;;;;;5048665;28;20036;-44
2022/08/24 07:33:05;;;;;;;3.75;2.50;;;;;;;;;;5043907;28;20037;-49
2022/08/24 07:35:32;;;;;;;7.95;2.47;;;;;;;;;;5048401;28;20480;-46
2022/08/24 07:37:59;;;;;;;5.80;2.60;;;;;;;;;;5046879;28;20029;-47
2022/08/24 07:40:27;;;;;;;4.40;2.60;;;;;;;;;;5041905;28;20386;-47
2022/08/24 07:42:55;;;;;;;5.38;2.63;;;;;;;;;;5045980;28;20094;-45
2022/08/24 07:45:21;;;;;;;7.25;2.78;;;;;;;;;;5043943;28;20017;-46
2022/08/24 07:47:48;;;;;;;9.07;2.88;;;;;;;;;;5046829;28;20033;-49
2022/08/24 07:50:14;;;;;;;4.70;2.58;;;;;;;;;;5047949;28;20078;-48
2022/08/24 07:52:40;;;;;;;3.28;1.98;;;;;;;;;;5045999;28;20040;-49
2022/08/24 07:55:06;;;;;;;10.93;2.70;;;;;;;;;;5046542;28;20608;-46
2022/08/24 07:57:32;;;;;;;9.85;2.50;;;;;;;;;;5048951;28;20112;-46
2022/08/24 07:59:59;;;;;;;6.43;2.75;;;;;;;;;;5014235;28;20025;-46
2022/08/24 08:02:25;;;;;;;5.20;2.50;;;;;;;;;;5047739;28;20029;-45
2022/08/24 08:04:53;;;;;;;8.88;2.83;;;;;;;;;;5045105;28;20041;-49
2022/08/24 08:07:18;;;;;;;15.60;4.43;;;;;;;;;;5047631;28;20036;-46
2022/08/24 08:09:45;;;;;;;13.25;4.93;;;;;;;;;;5047492;28;20025;-47
2022/08/24 08:12:10;;;;;;;13.80;4.15;;;;;;;;;;5048726;28;20124;-50
2022/08/24 08:14:37;;;;;;;14.40;4.00;;;;;;;;;;5046110;28;20389;-47
2022/08/24 08:17:03;;;;;;;9.48;4.07;;;;;;;;;;5045642;28;20037;-45
2022/08/24 08:19:29;;;;;;;11.13;4.13;;;;;;;;;;5043725;28;20033;-48
2022/08/24 08:24:42;;;;;;;7.15;4.07;;;;;;;;;;5040151;28;20044;-46
2022/08/24 08:27:15;;;;;;;10.23;3.70;;;;;;;;;;5042308;28;20034;-48
2022/08/24 08:29:41;;;;;;;18.75;4.43;;;;;;;;;;5047171;28;20029;-46
2022/08/24 08:32:09;;;;;;;13.27;4.65;;;;;;;;;;5045648;28;20035;-47
2022/08/24 08:34:34;;;;;;;13.70;5.22;;;;;;;;;;5044548;28;20036;-49
2022/08/24 08:37:02;;;;;;;12.27;4.75;;;;;;;;;;5046451;28;20389;-45
2022/08/24 08:39:28;;;;;;;7.55;4.03;;;;;;;;;;5046200;28;20025;-48
2022/08/24 08:41:57;;;;;;;10.27;4.20;;;;;;;;;;5044648;28;20482;-46
2022/08/24 08:44:24;;;;;;;7.95;3.58;;;;;;;;;;5046107;28;20025;-47
2022/08/24 08:47:21;;;;;;;12.52;3.70;;;;;;;;;;5046872;28;20033;-46
2022/08/24 08:49:58;;;;;;;8.30;3.47;;;;;;;;;;5045326;28;20174;-49
2022/08/24 08:52:43;;;;;;;18.23;3.63;;;;;;;;;;5044866;28;20040;-46
2022/08/24 08:55:27;;;;;;;10.60;3.65;;;;;;;;;;5043249;28;20045;-45
2022/08/24 08:58:36;;;;;;;8.95;3.28;;;;;;;;;;5047433;28;20134;-46
2022/08/24 09:01:19;;;;;;;5.40;2.50;;;;;;;;;;5043168;28;20051;-45
2022/08/24 09:04:02;;;;;;;10.35;3.33;;;;;;;;;;5044354;28;20028;-45
2022/08/24 09:06:34;;;;;;;6.47;3.40;;;;;;;;;;5043422;28;20029;-46
2022/08/24 09:09:25;;;;;;;10.40;3.35;;;;;;;;;;5046230;28;20045;-45
2022/08/24 09:12:30;;;;;;;8.18;3.00;;;;;;;;;;5044120;28;20033;-46
2022/08/24 09:15:06;;;;;;;6.65;2.92;;;;;;;;;;4982022;28;20041;-50
2022/08/24 09:17:51;;;;;;;8.05;2.80;;;;;;;;;;4983465;28;20117;-46
2022/08/24 09:20:25;;;;;;;6.57;3.10;;;;;;;;;;4979434;28;20661;-45
2022/08/24 09:23:13;;;;;;;7.85;3.10;;;;;;;;;;4986597;28;20030;-47
2022/08/24 09:26:15;;;;;;;9.20;3.53;;;;;;;;;;4979118;28;20292;-46
2022/08/24 09:28:43;;;;;;;;;;;;;;;;;;4979481;28;20089;-48
2022/08/24 09:31:27;;;;;;;6.43;2.83;;;;;;;;;;4977460;28;19930;-46
2022/08/24 09:34:30;;;;;;;5.78;3.00;;;;;;;;;;4986482;28;20118;-46
2022/08/24 09:37:27;;;;;;;7.38;3.40;;;;;;;;;;4980296;28;20042;-50
2022/08/24 09:40:30;;;;;;;4.68;3.03;;;;;;;;;;4984122;28;20031;-46
2022/08/24 09:42:58;;;;;;;11.35;3.78;;;;;;;;;;4983130;28;20041;-47
2022/08/24 09:45:54;;;;;;;7.55;3.05;;;;;;;;;;4980221;28;20030;-46
2022/08/24 09:48:38;;;;;;;4.95;3.67;;;;;;;;;;4982499;28;20112;-46
2022/08/24 09:51:22;;;;;;;3.78;2.85;;;;;;;;;;5022969;28;20059;-46
2022/08/24 09:53:47;;;;;;;4.80;3.30;;;;;;;;;;5044809;28;20111;-46
2022/08/24 09:56:33;;;;;;;13.88;3.95;;;;;;;;;;5044598;28;20044;-48
2022/08/24 09:59:23;;;;;;;9.77;3.30;;;;;;;;;;5044913;28;20029;-50
2022/08/24 10:02:01;;;;;;;6.60;3.50;;;;;;;;;;5042588;28;20053;-48
2022/08/24 10:05:15;;;;;;;14.38;3.60;;;;;;;;;;5040447;28;20068;-48
2022/08/24 10:08:02;;;;;;;6.88;3.13;;;;;;;;;;5028383;28;20469;-48
2022/08/24 10:10:40;;;;;;;3.38;3.08;;;;;;;;;;5044414;28;20043;-46
2022/08/24 10:13:15;;;;;;;7.13;4.55;;;;;;;;;;5046557;28;20367;-48
2022/08/24 10:15:59;;;;;;;6.10;3.50;;;;;;;;;;5038106;28;20034;-46
2022/08/24 10:18:34;;;;;;;5.80;3.30;;;;;;;;;;5045176;28;20036;-46
2022/08/24 10:21:12;;;;;;;6.07;3.58;;;;;;;;;;5045557;28;20036;-49
2022/08/24 10:23:53;;;;;;;7.97;3.50;;;;;;;;;;5041592;28;20386;-45
2022/08/24 10:26:37;;;;;;;8.95;3.15;;;;;;;;;;5041159;28;20462;-50
2022/08/24 10:29:42;;;;;;;7.95;3.45;;;;;;;;;;5041927;28;20043;-46
2022/08/24 10:32:39;;;;;;;9.40;2.90;;;;;;;;;;5031521;28;20045;-48
2022/08/24 10:35:29;;;;;;;3.83;2.67;;;;;;;;;;5044824;28;20041;-46
2022/08/24 10:41:19;;;;;;;2.70;2.50;;;;;;;;;;5045153;28;20684;-47
2022/08/24 10:44:10;;;;;;;7.65;2.42;;;;;;;;;;5044115;28;20033;-51
2022/08/24 10:46:50;;;;;;;5.13;2.40;;;;;;;;;;5042218;28;20500;-49
2022/08/24 10:49:34;;;;;;;5.53;2.22;;;;;;;;;;5043173;28;20746;-47
2022/08/24 10:52:17;;;;;;;2.40;1.98;;;;;;;;;;5044660;28;20033;-46
2022/08/24 10:54:44;;;;;;;3.85;2.25;;;;;;;;;;5044415;28;20493;-47
2022/08/24 10:57:12;;;;;;;6.03;2.40;;;;;;;;;;5046580;28;20041;-47
2022/08/24 10:59:57;;;;;;;3.40;2.13;;;;;;;;;;5048578;28;20021;-49
2022/08/24 11:02:37;;;;;;;3.15;2.00;;;;;;;;;;5047084;28;20048;-47
2022/08/24 11:05:07;;;;;;;4.18;2.20;;;;;;;;;;5043692;28;20037;-48
2022/08/24 11:07:34;;;;;;;4.22;2.47;;;;;;;;;;5048097;28;20119;-48
2022/08/24 11:10:05;;;;;;;3.67;2.25;;;;;;;;;;5046606;28;20458;-47
2022/08/24 11:12:42;;;;;;;3.05;2.00;;;;;;;;;;5047830;28;20040;-47
2022/08/24 11:15:17;;;;;;;3.08;2.33;;;;;;;;;;5048137;28;20456;-50
2022/08/24 11:17:53;;;;;;;4.25;2.30;;;;;;;;;;5047338;28;20029;-48
2022/08/24 11:20:54;;;;;;;4.40;2.42;;;;;;;;;;5042032;28;20025;-50
2022/08/24 11:23:21;;;;;;;3.90;2.23;;;;;;;;;;5038130;28;20046;-48
2022/08/24 11:25:59;;;;;;;3.17;2.60;;;;;;;;;;5048357;28;20054;-47
2022/08/24 11:28:32;;;;;;;5.35;2.92;;;;;;;;;;5044380;28;20039;-48
2022/08/24 11:30:59;;;;;;;6.32;2.72;;;;;;;;;;5046874;28;20017;-48
2022/08/24 11:33:44;;;;;;;3.70;2.80;;;;;;;;;;5046509;28;20036;-48
2022/08/24 11:36:18;;;;;;;9.63;2.30;;;;;;;;;;5044300;28;20044;-48
2022/08/24 11:38:43;;;;;;;2.47;2.00;;;;;;;;;;5046518;28;20108;-46
2022/08/24 11:41:18;;;;;;;3.50;2.15;;;;;;;;;;5048063;28;20103;-50
2022/08/24 11:44:04;;;;;;;2.95;1.85;;;;;;;;;;5050567;28;20116;-47
2022/08/24 11:46:45;;;;;;;3.20;1.85;;;;;;;;;;5047981;28;20107;-47
2022/08/24 11:49:21;;;;;;;5.65;2.42;;;;;;;;;;5045498;28;20032;-46
2022/08/24 11:52:14;;;;;;;10.40;2.15;;;;;;;;;;5043199;28;20021;-49
2022/08/24 11:55:00;;;;;;;3.08;2.00;;;;;;;;;;5046738;28;20115;-46
2022/08/24 11:57:37;;;;;;;9.73;2.22;;;;;;;;;;5046991;28;20025;-47
2022/08/24 12:00:11;;;;;;;2.35;1.88;;;;;;;;;;5045115;28;20056;-47
2022/08/24 12:02:54;;;;;;;2.05;1.77;;;;;;;;;;5048809;28;20424;-49
2022/08/24 12:05:57;;;;;;;3.45;1.70;;;;;;;;;;5048298;28;20035;-48
2022/08/24 12:08:41;;;;;;;5.53;1.90;;;;;;;;;;5043385;28;20029;-50
2022/08/24 12:11:26;;;;;;;3.75;1.90;;;;;;;;;;5046913;28;20029;-46
2022/08/24 12:14:30;;;;;;;4.70;1.85;;;;;;;;;;5045013;28;20036;-47
2022/08/24 12:17:24;;;;;;;7.22;1.63;;;;;;;;;;4984485;28;20502;-47
2022/08/24 12:19:55;;;;;;;4.75;1.90;;;;;;;;;;4986489;28;20552;-47
2022/08/24 12:22:22;;;;;;;3.92;2.00;;;;;;;;;;4987424;28;20030;-46
2022/08/24 12:25:01;;;;;;;1.80;1.70;;;;;;;;;;4985613;28;20116;-47
2022/08/24 12:27:32;;;;;;;1.63;1.48;;;;;;;;;;4983134;28;20066;-51
2022/08/24 12:30:05;;;;;;;4.90;2.00;;;;;;;;;;4987162;28;20624;-47
2022/08/24 12:32:52;;;;;;;2.13;1.60;;;;;;;;;;4987740;28;20491;-47
2022/08/24 12:35:40;;;;;;;2.22;2.00;;;;;;;;;;4982721;28;20077;-48
2022/08/24 12:38:28;;;;;;;2.28;1.80;;;;;;;;;;4984857;28;20027;-47
2022/08/24 12:41:31;;;;;;;4.43;2.00;;;;;;;;;;4985065;28;20037;-47
2022/08/24 12:44:10;;;;;;;4.40;2.30;;;;;;;;;;4985592;28;20034;-47
2022/08/24 12:46:38;;;;;;;2.65;2.00;;;;;;;;;;4985385;28;20038;-46
2022/08/24 12:49:15;;;;;;;3.55;1.85;;;;;;;;;;4987340;28;20581;-47
2022/08/24 12:52:03;;;;;;;9.65;1.98;;;;;;;;;;4993880;28;20125;-46
2022/08/24 12:54:47;;;;;;;2.80;1.70;;;;;;;;;;5044449;28;20041;-46
2022/08/24 12:57:50;;;;;;;2.03;1.80;;;;;;;;;;5045907;28;20034;-46
2022/08/24 13:00:21;;;;;;;3.45;2.10;;;;;;;;;;5043676;28;20951;-47
2022/08/24 13:02:58;;;;;;;2.55;1.73;;;;;;;;;;5029681;28;20056;-48
2022/08/24 13:05:24;;;;;;;4.25;1.60;;;;;;;;;;5045598;28;20072;-50
2022/08/24 13:07:52;;;;;;;5.53;1.50;;;;;;;;;;5044500;28;20168;-50
2022/08/24 13:10:17;;;;;;;2.08;1.80;;;;;;;;;;5047280;28;20049;-46
2022/08/24 13:12:43;;;;;;;4.82;2.10;;;;;;;;;;5047069;28;20063;-52
2022/08/24 13:15:30;;;;;;;2.90;1.65;;;;;;;;;;5046598;28;20029;-50
2022/08/24 13:18:19;;;;;;;4.70;2.10;;;;;;;;;;5042464;28;20041;-47
2022/08/24 13:20:45;;;;;;;4.20;2.10;;;;;;;;;;5048069;28;20029;-49
2022/08/24 13:23:11;;;;;;;2.80;1.70;;;;;;;;;;5044868;28;20126;-51
2022/08/24 13:25:46;;;;;;;3.80;1.90;;;;;;;;;;5047844;28;20112;-51
2022/08/24 13:28:24;;;;;;;3.80;2.40;;;;;;;;;;5046939;28;20445;-46
2022/08/24 13:30:52;;;;;;;4.45;2.95;;;;;;;;;;5045018;28;20170;-46
2022/08/24 13:33:27;;;;;;;7.72;2.15;;;;;;;;;;5043711;28;20064;-47
2022/08/24 13:36:01;;;;;;;2.85;1.73;;;;;;;;;;5044033;28;20032;-48
2022/08/24 13:38:33;;;;;;;5.13;1.83;;;;;;;;;;5042589;28;20080;-49
2022/08/24 13:41:05;;;;;;;;;;;;;;;;;;5044838;28;20043;-47
2022/08/24 13:43:30;;;;;;;2.58;1.98;;;;;;;;;;5044300;28;19920;-46
2022/08/24 13:46:11;;;;;;;10.05;1.90;;;;;;;;;;5046140;28;20071;-51
2022/08/24 13:48:57;;;;;;;3.53;1.73;;;;;;;;;;5041882;28;20111;-48
2022/08/24 13:51:22;;;;;;;1.90;1.80;;;;;;;;;;5047647;28;20028;-49
2022/08/24 13:53:51;;;;;;;5.95;1.90;;;;;;;;;;5045285;28;20033;-46
2022/08/24 13:56:24;;;;;;;3.75;1.70;;;;;;;;;;5045950;28;20067;-46
2022/08/24 13:59:01;;;;;;;3.78;1.92;;;;;;;;;;5045502;28;20028;-48
2022/08/24 14:01:33;;;;;;;3.50;1.90;;;;;;;;;;5045190;28;20040;-46
2022/08/24 14:04:08;;;;;;;4.05;2.22;;;;;;;;;;5044687;28;20055;-48
2022/08/24 14:07:05;;;;;;;1.58;1.48;;;;;;;;;;5042945;28;20013;-47
2022/08/24 14:09:52;;;;;;;3.28;1.85;;;;;;;;;;5043092;28;20041;-47
2022/08/24 14:12:29;;;;;;;3.50;2.00;;;;;;;;;;5043490;28;20496;-46
2022/08/24 14:15:18;;;;;;;9.70;2.10;;;;;;;;;;5043877;28;20033;-47
2022/08/24 14:17:51;;;;;;;5.25;2.00;;;;;;;;;;5042595;28;20029;-46
2022/08/24 14:20:51;;;;;;;5.88;1.60;;;;;;;;;;5044662;28;20064;-47
2022/08/24 14:23:46;;;;;;;2.35;1.60;;;;;;;;;;5043332;28;20024;-49
2022/08/24 14:26:33;;;;;;;2.00;1.55;;;;;;;;;;5045246;28;20048;-46
2022/08/24 14:29:33;;;;;;;5.68;1.75;;;;;;;;;;5044315;28;20080;-48
2022/08/24 14:31:59;;;;;;;3.33;1.85;;;;;;;;;;5032270;28;20040;-50
2022/08/24 14:34:38;;;;;;;1.73;1.40;;;;;;;;;;5046149;28;20041;-50
2022/08/24 14:37:12;;;;;;;2.15;1.45;;;;;;;;;;5047068;28;20571;-46
2022/08/24 14:40:01;;;;;;;2.22;1.63;;;;;;;;;;5042186;28;20029;-47
2022/08/24 14:42:45;;;;;;;4.72;1.90;;;;;;;;;;5044921;28;20071;-49
2022/08/24 14:45:25;;;;;;;3.17;1.67;;;;;;;;;;5044328;28;20495;-46
2022/08/24 14:48:21;;;;;;;3.92;1.67;;;;;;;;;;5044821;28;20102;-46
2022/08/24 14:51:02;;;;;;;4.28;2.00;;;;;;;;;;5044060;28;20040;-50
2022/08/24 14:53:46;;;;;;;5.70;2.00;;;;;;;;;;5042867;28;20478;-51
2022/08/24 14:56:32;;;;;;;2.45;1.77;;;;;;;;;;5044627;28;20049;-48
2022/08/24 14:59:16;;;;;;;10.93;2.10;;;;;;;;;;5041237;28;20108;-46
2022/08/24 15:01:48;;;;;;;3.92;1.83;;;;;;;;;;5042714;28;20028;-48
2022/08/24 15:04:38;;;;;;;2.55;1.42;;;;;;;;;;5043798;28;20034;-47
2022/08/24 15:07:24;;;;;;;4.55;1.90;;;;;;;;;;5044386;28;20605;-47
2022/08/24 15:09:51;;;;;;;4.07;1.83;;;;;;;;;;5042957;28;20036;-46
2022/08/24 15:12:35;;;;;;;2.90;2.05;;;;;;;;;;5042556;28;20035;-49
2022/08/24 15:15:09;;;;;;;2.58;2.03;;;;;;;;;;5041590;28;20618;-47
2022/08/24 15:17:50;;;;;;;2.38;1.60;;;;;;;;;;5044308;28;20051;-46
2022/08/24 15:20:43;;;;;;;3.05;1.63;;;;;;;;;;5045247;28;20029;-46
2022/08/24 15:23:14;;;;;;;4.60;1.88;;;;;;;;;;5042730;28;20029;-47
2022/08/24 15:26:08;;;;;;;2.08;1.88;;;;;;;;;;5039838;28;20484;-47
2022/08/24 15:28:34;;;;;;;4.00;2.00;;;;;;;;;;5040489;28;20037;-51